Terminal Aerodrome Forecast
Issued by NWS

Home | Current Version | Previous Version | Text Only | Print | Product List | Glossary On
Versions: 1 2 3 4 5 6 7 8 9 10 11 12 13 14 15 16 17 18 19 20
000
FTUS41 KGYX 302320
TAFPSM
TAF
KPSM 302320Z 0100/0124 14007KT P6SM BKN080 BKN120
     FM010900 12005KT 3SM BR OVC050
     FM011200 12009KT 2SM -RA BR OVC010 PROB30 0116/0120 3SM -TSRA
      OVC010CB=

USA.gov is the U.S. government's official web portal to all federal, state and local government web resources and services.